createdAt,value
2022-12-18T00:01:15.595Z,-3.20
2022-12-18T00:03:42.482Z,-3.24
2022-12-18T00:06:09.259Z,-3.33
2022-12-18T00:08:35.824Z,-3.38
2022-12-18T00:11:07.082Z,-3.29
2022-12-18T00:13:34.023Z,-3.36
2022-12-18T00:16:05.168Z,-3.39
2022-12-18T00:18:32.239Z,-3.33
2022-12-18T00:21:03.880Z,-3.28
2022-12-18T00:23:31.259Z,-3.41
2022-12-18T00:26:06.635Z,-3.42
2022-12-18T00:28:33.586Z,-3.46
2022-12-18T00:31:11.525Z,-3.42
2022-12-18T00:33:39.206Z,-3.39
2022-12-18T00:36:08.577Z,-3.45
2022-12-18T00:38:35.283Z,-3.37
2022-12-18T00:41:02.279Z,-3.38
2022-12-18T00:43:28.817Z,-3.48
2022-12-18T00:45:55.343Z,-3.35
2022-12-18T00:48:22.234Z,-3.43
2022-12-18T00:50:49.812Z,-3.46
2022-12-18T00:53:16.528Z,-3.46
2022-12-18T00:55:43.688Z,-3.52
2022-12-18T00:58:11.061Z,-3.50
2022-12-18T01:00:37.665Z,-3.43
2022-12-18T01:03:04.993Z,-3.57
2022-12-18T01:05:31.758Z,-3.55
2022-12-18T01:07:58.702Z,-3.52
2022-12-18T01:10:25.902Z,-3.49
2022-12-18T01:12:52.755Z,-3.42
2022-12-18T01:15:20.157Z,-3.41
2022-12-18T01:17:46.776Z,-3.56
2022-12-18T01:20:13.883Z,-3.56
2022-12-18T01:22:40.321Z,-3.56
2022-12-18T01:25:06.980Z,-3.48
2022-12-18T01:27:35.039Z,-3.60
2022-12-18T01:30:01.517Z,-3.64
2022-12-18T01:32:31.413Z,-3.65
2022-12-18T01:34:58.027Z,-3.66
2022-12-18T01:37:24.415Z,-3.66
2022-12-18T01:39:50.927Z,-3.62
2022-12-18T01:42:18.168Z,-3.69
2022-12-18T01:45:06.060Z,-3.57
2022-12-18T01:47:46.435Z,-3.51
2022-12-18T01:50:17.690Z,-3.51
2022-12-18T01:52:48.884Z,-3.56
2022-12-18T01:55:19.195Z,-3.51
2022-12-18T01:57:46.017Z,-3.53
2022-12-18T02:00:16.410Z,-3.50
2022-12-18T02:02:44.929Z,-3.37
2022-12-18T02:05:13.798Z,-3.40
2022-12-18T02:07:52.407Z,-3.35
2022-12-18T02:10:42.612Z,-3.34
2022-12-18T02:13:12.060Z,-3.25
2022-12-18T02:15:59.727Z,-3.36
2022-12-18T02:18:33.521Z,-3.34
2022-12-18T02:21:09.256Z,-3.19
2022-12-18T02:23:53.469Z,-3.10
2022-12-18T02:26:26.883Z,-3.18
2022-12-18T02:29:08.829Z,-3.08
2022-12-18T02:31:42.242Z,-3.18
2022-12-18T02:34:10.211Z,-3.19
2022-12-18T02:36:41.527Z,-3.11
2022-12-18T02:39:11.849Z,-2.90
2022-12-18T02:41:39.631Z,-2.80
2022-12-18T02:44:12.358Z,-2.99
2022-12-18T02:46:45.317Z,-2.87
2022-12-18T02:49:30.397Z,-2.97
2022-12-18T02:52:13.487Z,-2.96
2022-12-18T02:54:48.857Z,-3.08
2022-12-18T02:57:36.441Z,-3.15
2022-12-18T03:00:26.747Z,-3.09
2022-12-18T03:03:03.615Z,-3.10
2022-12-18T03:05:42.016Z,-2.94
2022-12-18T03:08:13.487Z,-3.05
2022-12-18T03:10:46.921Z,-2.97
2022-12-18T03:13:20.940Z,-3.06
2022-12-18T03:15:51.787Z,-3.01
2022-12-18T03:18:26.795Z,-3.05
2022-12-18T03:20:57.858Z,-3.06
2022-12-18T03:23:29.743Z,-2.87
2022-12-18T03:26:05.851Z,-2.95
2022-12-18T03:28:37.931Z,-2.95
2022-12-18T03:31:08.071Z,-2.96
2022-12-18T03:33:51.829Z,-2.93
2022-12-18T03:36:18.815Z,-2.95
2022-12-18T03:38:45.272Z,-3.07
2022-12-18T03:41:17.776Z,-3.09
2022-12-18T03:44:21.861Z,-3.21
2022-12-18T03:47:07.794Z,-3.11
2022-12-18T03:50:12.299Z,-3.24
2022-12-18T03:52:45.535Z,-3.02
2022-12-18T03:55:13.149Z,-3.12
2022-12-18T03:57:40.483Z,-3.21
2022-12-18T04:00:11.544Z,-3.26
2022-12-18T04:02:42.104Z,-3.16
2022-12-18T04:05:10.641Z,-3.05
2022-12-18T04:07:39.247Z,-3.15
2022-12-18T04:10:07.930Z,-3.18
2022-12-18T04:12:34.307Z,-3.21
2022-12-18T04:15:00.709Z,-3.16
2022-12-18T04:17:27.099Z,-3.22
2022-12-18T04:19:53.476Z,-3.18
2022-12-18T04:22:19.820Z,-3.21
2022-12-18T04:24:46.991Z,-3.30
2022-12-18T04:27:13.566Z,-3.37
2022-12-18T04:29:39.950Z,-3.37
2022-12-18T04:32:06.711Z,-3.39
2022-12-18T04:34:33.068Z,-3.32
2022-12-18T04:36:59.455Z,-3.16
2022-12-18T04:39:25.892Z,-3.23
2022-12-18T04:41:52.592Z,-3.25
2022-12-18T04:44:19.196Z,-3.32
2022-12-18T04:46:45.674Z,-3.27
2022-12-18T04:49:12.146Z,-3.10
2022-12-18T04:51:38.642Z,-3.20
2022-12-18T04:54:05.180Z,-3.24
2022-12-18T04:56:32.767Z,-3.26
2022-12-18T04:58:59.131Z,-3.21
2022-12-18T05:01:30.923Z,-3.25
2022-12-18T05:04:00.861Z,-3.07
2022-12-18T05:06:27.253Z,-3.15
2022-12-18T05:08:53.654Z,-3.06
2022-12-18T05:11:20.068Z,-2.98
2022-12-18T05:13:46.711Z,-3.09
2022-12-18T05:16:14.459Z,-3.22
2022-12-18T05:18:41.353Z,-3.24
2022-12-18T05:21:07.743Z,-3.17
2022-12-18T05:23:34.227Z,-3.11
2022-12-18T05:26:03.268Z,-3.07
2022-12-18T05:28:31.199Z,-3.02
2022-12-18T05:31:01.690Z,-3.12
2022-12-18T05:33:31.168Z,-3.16
2022-12-18T05:35:59.971Z,-3.16
2022-12-18T05:38:28.288Z,-3.20
2022-12-18T05:40:55.022Z,-3.28
2022-12-18T05:43:22.809Z,-3.32
2022-12-18T05:45:49.966Z,-3.30
2022-12-18T05:48:17.325Z,-3.29
2022-12-18T05:50:48.086Z,-3.41
2022-12-18T05:53:21.017Z,-3.38
2022-12-18T05:55:48.228Z,-3.34
2022-12-18T05:58:15.866Z,-3.38
2022-12-18T06:00:44.646Z,-3.43
2022-12-18T06:03:12.973Z,-3.39
2022-12-18T06:05:42.385Z,-3.27
2022-12-18T06:08:09.475Z,-3.44
2022-12-18T06:10:36.473Z,-3.51
2022-12-18T06:13:02.935Z,-3.59
2022-12-18T06:15:29.492Z,-3.64
2022-12-18T06:17:55.838Z,-3.69
2022-12-18T06:20:23.144Z,-3.77
2022-12-18T06:22:49.630Z,-3.91
2022-12-18T06:25:16.162Z,-3.94
2022-12-18T06:27:42.542Z,-3.98
2022-12-18T06:30:10.308Z,-4.07
2022-12-18T06:32:36.659Z,-4.09
2022-12-18T06:35:03.150Z,-4.11
2022-12-18T06:37:31.429Z,-4.11
2022-12-18T06:39:57.800Z,-4.09
2022-12-18T06:42:25.006Z,-4.11
2022-12-18T06:44:51.480Z,-4.12
2022-12-18T06:47:17.871Z,-4.02
2022-12-18T06:49:44.338Z,-4.13
2022-12-18T06:52:10.784Z,-4.09
2022-12-18T06:54:37.168Z,-4.06
2022-12-18T06:57:03.645Z,-4.15
2022-12-18T06:59:30.130Z,-4.18
2022-12-18T07:01:56.751Z,-4.37
2022-12-18T07:04:23.174Z,-4.25
2022-12-18T07:06:49.575Z,-4.34
2022-12-18T07:09:15.950Z,-4.33
2022-12-18T07:11:42.609Z,-4.27
2022-12-18T07:14:08.983Z,-4.19
2022-12-18T07:16:35.453Z,-4.12
2022-12-18T07:19:01.843Z,-4.02
2022-12-18T07:21:28.546Z,-4.05
2022-12-18T07:23:54.963Z,-4.01
2022-12-18T07:26:22.646Z,-3.92
2022-12-18T07:28:49.958Z,-3.97
2022-12-18T07:31:19.762Z,-4.01
2022-12-18T07:33:48.419Z,-4.03
2022-12-18T07:36:15.618Z,-3.99
2022-12-18T07:38:42.144Z,-3.89
2022-12-18T07:41:12.030Z,-3.96
2022-12-18T07:43:39.928Z,-3.98
2022-12-18T07:46:07.955Z,-3.99
2022-12-18T07:48:34.373Z,-3.94
2022-12-18T07:51:05.289Z,-3.87
2022-12-18T07:53:32.550Z,-3.99
2022-12-18T07:56:26.719Z,-3.96
2022-12-18T07:58:52.509Z,-3.92
2022-12-18T08:01:19.025Z,-3.91
2022-12-18T08:03:45.485Z,-3.94
2022-12-18T08:06:11.934Z,-3.93
2022-12-18T08:08:38.324Z,-3.90
2022-12-18T08:11:04.963Z,-3.84
2022-12-18T08:13:31.300Z,-3.85
2022-12-18T08:16:16.718Z,-3.86
2022-12-18T08:18:43.015Z,-3.86
2022-12-18T08:21:21.829Z,-3.76
2022-12-18T08:23:48.595Z,-3.62
2022-12-18T08:26:16.252Z,-3.61
2022-12-18T08:28:43.380Z,-3.51
2022-12-18T08:31:10.785Z,-3.33
2022-12-18T08:33:39.022Z,-3.30
2022-12-18T08:36:06.501Z,-3.11
2022-12-18T08:38:34.232Z,-3.11
2022-12-18T08:41:01.220Z,-3.04
2022-12-18T08:43:46.517Z,-3.01
2022-12-18T08:46:13.153Z,-3.01
2022-12-18T08:48:39.618Z,-2.95
2022-12-18T08:51:06.140Z,-2.73
2022-12-18T08:53:35.614Z,-2.69
2022-12-18T08:56:02.744Z,-2.58
2022-12-18T08:58:29.357Z,-2.56
2022-12-18T09:01:01.075Z,-2.33
2022-12-18T09:03:27.457Z,-2.34
2022-12-18T09:05:53.837Z,-2.12
2022-12-18T09:08:20.253Z,-2.19
2022-12-18T09:10:49.328Z,-2.12
2022-12-18T09:13:16.919Z,-2.04
2022-12-18T09:15:52.589Z,-1.99
2022-12-18T09:18:20.936Z,-1.85
2022-12-18T09:20:47.401Z,-1.87
2022-12-18T09:23:13.911Z,-1.72
2022-12-18T09:25:40.935Z,-1.41
2022-12-18T09:28:12.540Z,-1.40
2022-12-18T09:30:45.451Z,-1.10
2022-12-18T09:33:12.016Z,-1.04
2022-12-18T09:35:40.069Z,-0.97
2022-12-18T09:38:07.269Z,-0.85
2022-12-18T09:40:42.664Z,-0.65
2022-12-18T09:43:17.990Z,-0.69
2022-12-18T09:45:50.682Z,-0.38
2022-12-18T09:48:24.417Z,-0.29
2022-12-18T09:50:52.452Z,0.08
2022-12-18T09:53:25.465Z,0.20
2022-12-18T09:55:53.049Z,0.03
2022-12-18T09:58:40.704Z,0.33
2022-12-18T10:01:17.368Z,0.40
2022-12-18T10:03:43.858Z,0.00
2022-12-18T10:06:21.999Z,0.18
2022-12-18T10:09:05.624Z,0.42
2022-12-18T10:11:44.518Z,0.32
2022-12-18T10:14:43.487Z,0.26
2022-12-18T10:17:16.330Z,0.24
2022-12-18T10:19:53.044Z,0.42
2022-12-18T10:22:27.507Z,0.32
2022-12-18T10:25:46.434Z,0.60
2022-12-18T10:28:18.947Z,0.77
2022-12-18T10:30:45.634Z,0.78
2022-12-18T10:33:18.919Z,0.88
2022-12-18T10:35:47.117Z,0.96
2022-12-18T10:38:13.456Z,1.01
2022-12-18T10:40:55.775Z,1.11
2022-12-18T10:43:25.316Z,1.40
2022-12-18T10:46:23.981Z,1.21
2022-12-18T10:48:58.569Z,1.34
2022-12-18T10:51:30.314Z,1.44
2022-12-18T10:54:06.439Z,1.55
2022-12-18T10:56:36.726Z,1.63
2022-12-18T10:59:05.895Z,1.77
2022-12-18T11:01:57.211Z,1.35
2022-12-18T11:04:29.621Z,1.71
2022-12-18T11:07:04.952Z,1.51
2022-12-18T11:09:36.863Z,1.52
2022-12-18T11:12:23.574Z,1.68
2022-12-18T11:14:52.737Z,1.89
2022-12-18T11:17:37.114Z,1.82
2022-12-18T11:20:21.364Z,1.81
2022-12-18T11:22:59.812Z,1.93
2022-12-18T11:25:35.441Z,2.33
2022-12-18T11:28:27.094Z,2.32
2022-12-18T11:31:20.853Z,2.23
2022-12-18T11:34:26.763Z,2.09
2022-12-18T11:36:48.967Z,1.87
2022-12-18T11:39:34.226Z,2.13
2022-12-18T11:42:10.659Z,1.58
2022-12-18T11:44:44.550Z,1.49
2022-12-18T11:47:43.270Z,1.42
2022-12-18T11:50:24.938Z,1.34
2022-12-18T11:52:56.561Z,1.34
2022-12-18T11:55:50.536Z,1.19
2022-12-18T11:58:45.819Z,1.16
2022-12-18T12:01:35.594Z,0.98
2022-12-18T12:04:16.631Z,1.02
2022-12-18T12:07:04.864Z,0.95
2022-12-18T12:09:46.929Z,0.91
2022-12-18T12:12:24.656Z,0.98
2022-12-18T12:15:21.981Z,0.89
2022-12-18T12:17:59.652Z,0.85
2022-12-18T12:20:51.635Z,0.74
2022-12-18T12:23:39.511Z,0.71
2022-12-18T12:26:37.300Z,0.57
2022-12-18T12:29:23.991Z,0.62
2022-12-18T12:32:12.000Z,0.66
2022-12-18T12:35:09.494Z,0.66
2022-12-18T12:38:00.545Z,0.77
2022-12-18T12:43:27.741Z,0.61
2022-12-18T12:46:05.639Z,0.49
2022-12-18T12:48:48.656Z,0.53
2022-12-18T12:51:22.584Z,0.34
2022-12-18T12:53:49.976Z,0.51
2022-12-18T12:56:19.079Z,0.42
2022-12-18T12:59:12.225Z,0.18
2022-12-18T13:01:48.426Z,0.24
2022-12-18T13:04:43.188Z,0.20
2022-12-18T13:07:51.992Z,0.29
2022-12-18T13:10:20.628Z,0.36
2022-12-18T13:12:58.059Z,0.34
2022-12-18T13:15:26.408Z,0.31
2022-12-18T13:18:11.134Z,0.35
2022-12-18T13:20:42.523Z,0.30
2022-12-18T13:23:40.964Z,0.32
2022-12-18T13:26:07.590Z,0.27
2022-12-18T13:28:34.813Z,0.35
2022-12-18T13:31:02.562Z,0.27
2022-12-18T13:33:34.843Z,0.20
2022-12-18T13:36:10.088Z,0.23
2022-12-18T13:38:38.724Z,0.25
2022-12-18T13:41:14.056Z,0.40
2022-12-18T13:43:44.601Z,0.43
2022-12-18T13:46:37.503Z,0.33
2022-12-18T13:49:13.054Z,0.34
2022-12-18T13:51:43.811Z,0.16
2022-12-18T13:54:35.425Z,0.14
2022-12-18T13:57:03.369Z,0.19
2022-12-18T13:59:39.597Z,0.13
2022-12-18T14:02:22.466Z,0.09
2022-12-18T14:04:50.524Z,0.03
2022-12-18T14:07:22.940Z,0.01
2022-12-18T14:09:58.131Z,0.03
2022-12-18T14:12:50.995Z,0.11
2022-12-18T14:15:31.943Z,-0.02
2022-12-18T14:17:58.680Z,0.17
2022-12-18T14:20:30.569Z,0.00
2022-12-18T14:22:58.853Z,0.03
2022-12-18T14:25:31.113Z,-0.01
2022-12-18T14:28:15.236Z,-0.07
2022-12-18T14:30:46.920Z,-0.11
2022-12-18T14:33:28.352Z,-0.15
2022-12-18T14:35:56.543Z,-0.17
2022-12-18T14:38:36.026Z,-0.05
2022-12-18T14:41:05.764Z,-0.04
2022-12-18T14:43:37.407Z,-0.08
2022-12-18T14:46:06.773Z,-0.16
2022-12-18T14:48:33.708Z,0.01
2022-12-18T14:51:06.108Z,0.03
2022-12-18T14:53:42.162Z,-0.08
2022-12-18T14:56:16.637Z,-0.14
2022-12-18T14:59:04.391Z,-0.26
2022-12-18T15:01:35.501Z,-0.22
2022-12-18T15:04:03.921Z,-0.28
2022-12-18T15:06:34.175Z,-0.23
2022-12-18T15:09:03.055Z,-0.16
2022-12-18T15:11:35.768Z,-0.28
2022-12-18T15:14:30.913Z,-0.28
2022-12-18T15:16:59.187Z,-0.31
2022-12-18T15:19:39.665Z,-0.28
2022-12-18T15:22:18.532Z,-0.18
2022-12-18T15:24:45.037Z,-0.22
2022-12-18T15:27:31.169Z,-0.17
2022-12-18T15:30:10.545Z,-0.21
2022-12-18T15:32:38.396Z,-0.17
2022-12-18T15:35:18.595Z,-0.26
2022-12-18T15:37:45.999Z,-0.32
2022-12-18T15:40:14.823Z,-0.36
2022-12-18T15:43:03.394Z,-0.37
2022-12-18T15:45:29.850Z,-0.42
2022-12-18T15:47:56.612Z,-0.42
2022-12-18T15:50:23.247Z,-0.39
2022-12-18T15:52:52.076Z,-0.47
2022-12-18T15:55:40.328Z,-0.45
2022-12-18T15:58:09.220Z,-0.42
2022-12-18T16:00:38.953Z,-0.46
2022-12-18T16:03:06.277Z,-0.46
2022-12-18T16:05:32.854Z,-0.47
2022-12-18T16:07:59.360Z,-0.49
2022-12-18T16:10:27.145Z,-0.47
2022-12-18T16:12:53.576Z,-0.58
2022-12-18T16:15:24.524Z,-0.53
2022-12-18T16:17:51.543Z,-0.51
2022-12-18T16:20:21.557Z,-0.51
2022-12-18T16:22:49.224Z,-0.64
2022-12-18T16:25:28.231Z,-0.64
2022-12-18T16:27:56.224Z,-0.65
2022-12-18T16:30:26.379Z,-0.65
2022-12-18T16:32:52.873Z,-0.69
2022-12-18T16:35:19.483Z,-0.72
2022-12-18T16:37:45.863Z,-0.63
2022-12-18T16:40:15.040Z,-0.63
2022-12-18T16:42:42.932Z,-0.60
2022-12-18T16:45:11.858Z,-0.63
2022-12-18T16:47:39.786Z,-0.67
2022-12-18T16:50:07.211Z,-0.73
2022-12-18T16:52:33.982Z,-0.74
2022-12-18T16:55:00.418Z,-0.82
2022-12-18T16:57:26.905Z,-0.71
2022-12-18T16:59:53.315Z,-0.76
2022-12-18T17:02:24.875Z,-0.70
2022-12-18T17:04:57.106Z,-0.76
2022-12-18T17:07:24.877Z,-0.81
2022-12-18T17:09:51.366Z,-0.89
2022-12-18T17:12:18.088Z,-0.93
2022-12-18T17:14:45.072Z,-0.91
2022-12-18T17:17:26.935Z,-0.87
2022-12-18T17:19:53.388Z,-0.87
2022-12-18T17:22:20.899Z,-0.87
2022-12-18T17:24:47.774Z,-0.90
2022-12-18T17:27:14.187Z,-0.92
2022-12-18T17:29:46.760Z,-0.89
2022-12-18T17:32:14.648Z,-0.81
2022-12-18T17:34:41.168Z,-0.82
2022-12-18T17:37:07.883Z,-0.87
2022-12-18T17:39:34.405Z,-0.86
2022-12-18T17:42:01.193Z,-0.95
2022-12-18T17:44:27.674Z,-0.91
2022-12-18T17:46:54.139Z,-0.94
2022-12-18T17:49:21.487Z,-0.94
2022-12-18T17:51:47.854Z,-0.91
2022-12-18T17:54:14.424Z,-0.87
2022-12-18T17:56:40.814Z,-0.86
2022-12-18T17:59:07.615Z,-1.00
2022-12-18T18:01:37.363Z,-0.97
2022-12-18T18:04:07.717Z,-0.98
2022-12-18T18:06:34.448Z,-1.00
2022-12-18T18:09:03.881Z,-0.97
2022-12-18T18:11:49.202Z,-0.99
2022-12-18T18:14:19.880Z,-0.94
2022-12-18T18:16:49.128Z,-1.03
2022-12-18T18:19:18.251Z,-0.91
2022-12-18T18:21:47.067Z,-0.95
2022-12-18T18:24:15.790Z,-1.02
2022-12-18T18:26:42.592Z,-0.96
2022-12-18T18:29:16.415Z,-1.04
2022-12-18T18:31:43.797Z,-0.96
2022-12-18T18:34:25.310Z,-1.04
2022-12-18T18:36:52.105Z,-0.91
2022-12-18T18:39:19.507Z,-1.03
2022-12-18T18:41:47.943Z,-1.04
2022-12-18T18:44:15.656Z,-1.08
2022-12-18T18:46:42.024Z,-1.04
2022-12-18T18:49:08.481Z,-1.15
2022-12-18T18:51:35.498Z,-1.12
2022-12-18T18:54:02.039Z,-1.04
2022-12-18T18:59:15.152Z,-0.99
2022-12-18T19:01:41.887Z,-1.08
2022-12-18T19:04:08.388Z,-1.10
2022-12-18T19:06:34.778Z,-1.10
2022-12-18T19:09:02.853Z,-1.12
2022-12-18T19:11:48.325Z,-1.14
2022-12-18T19:14:15.677Z,-1.13
2022-12-18T19:16:43.514Z,-1.12
2022-12-18T19:19:10.664Z,-1.13
2022-12-18T19:21:38.248Z,-1.11
2022-12-18T19:24:05.573Z,-1.00
2022-12-18T19:26:32.217Z,-1.03
2022-12-18T19:29:03.599Z,-1.07
2022-12-18T19:31:35.266Z,-1.02
2022-12-18T19:34:03.822Z,-1.01
2022-12-18T19:36:33.263Z,-0.98
2022-12-18T19:39:01.337Z,-0.90
2022-12-18T19:41:31.088Z,-0.92
2022-12-18T19:43:58.418Z,-0.94
2022-12-18T19:46:24.963Z,-0.84
2022-12-18T19:48:52.130Z,-0.87
2022-12-18T19:51:27.196Z,-0.95
2022-12-18T19:53:58.901Z,-0.94
2022-12-18T19:56:33.260Z,-0.96
2022-12-18T19:59:00.352Z,-0.96
2022-12-18T20:01:28.770Z,-0.94
2022-12-18T20:03:58.086Z,-0.91
2022-12-18T20:06:36.667Z,-0.88
2022-12-18T20:09:06.575Z,-0.84
2022-12-18T20:11:41.397Z,-0.89
2022-12-18T20:14:09.249Z,-0.85
2022-12-18T20:16:35.881Z,-0.80
2022-12-18T20:19:02.422Z,-0.84
2022-12-18T20:21:29.370Z,-0.84
2022-12-18T20:23:56.060Z,-0.87
2022-12-18T20:26:23.835Z,-0.89
2022-12-18T20:28:50.306Z,-0.88
2022-12-18T20:31:16.657Z,-0.85
2022-12-18T20:33:44.537Z,-0.85
2022-12-18T20:36:22.627Z,-0.84
2022-12-18T20:38:57.303Z,-0.84
2022-12-18T20:41:25.899Z,-0.79
2022-12-18T20:43:54.039Z,-0.82
2022-12-18T20:46:20.731Z,-0.74
2022-12-18T20:48:48.032Z,-0.71
2022-12-18T20:51:17.304Z,-0.69
2022-12-18T20:53:44.553Z,-0.72
2022-12-18T20:56:15.014Z,-0.74
2022-12-18T20:58:45.748Z,-0.67
2022-12-18T21:01:17.742Z,-0.57
2022-12-18T21:03:48.761Z,-0.63
2022-12-18T21:06:17.931Z,-0.63
2022-12-18T21:08:44.974Z,-0.65
2022-12-18T21:11:35.981Z,-0.66
2022-12-18T21:14:13.489Z,-0.60
2022-12-18T21:16:40.756Z,-0.61
2022-12-18T21:19:07.250Z,-0.54
2022-12-18T21:21:35.870Z,-0.55
2022-12-18T21:24:05.995Z,-0.50
2022-12-18T21:26:32.372Z,-0.49
2022-12-18T21:29:01.411Z,-0.48
2022-12-18T21:31:31.565Z,-0.43
2022-12-18T21:34:02.171Z,-0.33
2022-12-18T21:36:29.642Z,-0.35
2022-12-18T21:38:57.226Z,-0.44
2022-12-18T21:41:43.967Z,-0.47
2022-12-18T21:44:15.305Z,-0.48
2022-12-18T21:46:44.715Z,-0.53
2022-12-18T21:49:14.447Z,-0.47
2022-12-18T21:51:41.805Z,-0.50
2022-12-18T21:54:08.221Z,-0.39
2022-12-18T21:56:53.054Z,-0.38
2022-12-18T21:59:26.405Z,-0.46
2022-12-18T22:01:54.637Z,-0.34
2022-12-18T22:04:21.735Z,-0.39
2022-12-18T22:06:49.090Z,-0.37
2022-12-18T22:09:18.729Z,-0.33
2022-12-18T22:11:45.695Z,-0.42
2022-12-18T22:14:13.637Z,-0.33
2022-12-18T22:16:40.509Z,-0.45
2022-12-18T22:19:07.788Z,-0.39
2022-12-18T22:21:36.143Z,-0.43
2022-12-18T22:24:06.057Z,-0.35
2022-12-18T22:26:39.447Z,-0.48
2022-12-18T22:29:26.266Z,-0.41
2022-12-18T22:31:52.672Z,-0.39
2022-12-18T22:34:22.844Z,-0.39
2022-12-18T22:36:50.655Z,-0.39
2022-12-18T22:39:25.468Z,-0.35
2022-12-18T22:41:52.206Z,-0.47
2022-12-18T22:44:19.398Z,-0.43
2022-12-18T22:46:53.999Z,-0.16
2022-12-18T22:49:32.299Z,-0.21
2022-12-18T22:52:00.341Z,-0.25
2022-12-18T22:54:26.701Z,-0.37
2022-12-18T22:56:53.067Z,-0.37
2022-12-18T22:59:23.249Z,-0.27
2022-12-18T23:01:51.453Z,-0.23
2022-12-18T23:04:28.381Z,-0.16
2022-12-18T23:06:57.601Z,0.07
2022-12-18T23:09:24.152Z,-0.12
2022-12-18T23:11:50.793Z,-0.23
2022-12-18T23:14:17.281Z,-0.26
2022-12-18T23:16:43.765Z,-0.08
2022-12-18T23:19:12.593Z,-0.16
2022-12-18T23:21:39.291Z,-0.22
2022-12-18T23:24:06.106Z,-0.13
2022-12-18T23:26:32.500Z,-0.07
2022-12-18T23:28:58.942Z,-0.01
2022-12-18T23:31:28.349Z,-0.04
2022-12-18T23:33:57.092Z,-0.11
2022-12-18T23:36:24.212Z,-0.05
2022-12-18T23:38:55.385Z,-0.04
2022-12-18T23:41:23.907Z,-0.05
2022-12-18T23:43:50.730Z,-0.02
2022-12-18T23:46:24.101Z,-0.01
2022-12-18T23:48:51.745Z,0.03
2022-12-18T23:51:20.520Z,0.06
2022-12-18T23:53:46.848Z,0.06
2022-12-18T23:56:14.579Z,0.11
2022-12-18T23:58:42.183Z,0.05
